Time;durP1;ratioP1;P1;durP2;ratioP2;P2;SDS_P1;SDS_P2;PMS_P1;PMS_P2;Temp;Humidity;BMP_temperature;BMP_pressure;BME280_temperature;BME280_humidity;BME280_pressure;Samples;Min_cycle;Max_cycle;Signal;HPM_P1;HPM_P2
2022/04/05 00:02:11;;;;;;;6.88;2.80;;;8.20;96.60;;;;;;5021642;28;20071;-70
2022/04/05 00:04:37;;;;;;;5.68;3.20;;;8.20;96.60;;;;;;5019815;28;20046;-70
2022/04/05 00:07:03;;;;;;;6.03;2.95;;;8.30;95.90;;;;;;5035572;28;20033;-70
2022/04/05 00:09:29;;;;;;;4.53;2.78;;;8.30;95.60;;;;;;5002910;28;20069;-70
2022/04/05 00:11:56;;;;;;;9.57;2.97;;;8.30;95.50;;;;;;5036945;28;20046;-70
2022/04/05 00:14:22;;;;;;;5.53;2.63;;;8.30;95.40;;;;;;5018387;28;20045;-70
2022/04/05 00:16:49;;;;;;;5.60;2.80;;;8.30;95.40;;;;;;5033639;28;20038;-70
2022/04/05 00:19:19;;;;;;;7.00;2.70;;;8.40;95.20;;;;;;5020940;28;20140;-69
2022/04/05 00:21:45;;;;;;;6.90;2.90;;;8.30;95.20;;;;;;5034705;28;20041;-69
2022/04/05 00:24:12;;;;;;;6.18;2.90;;;8.40;95.10;;;;;;5019221;28;20775;-70
2022/04/05 00:26:39;;;;;;;4.38;2.50;;;8.40;94.90;;;;;;5000895;28;20397;-70
2022/04/05 00:29:05;;;;;;;3.47;2.50;;;8.40;95.00;;;;;;5022499;28;20132;-69
2022/04/05 00:31:31;;;;;;;6.57;2.67;;;8.40;95.00;;;;;;5018611;28;20497;-70
2022/04/05 00:33:57;;;;;;;3.97;2.58;;;8.40;95.00;;;;;;5021182;28;20040;-69
2022/04/05 00:36:23;;;;;;;4.53;2.65;;;8.20;95.00;;;;;;5033597;28;20029;-69
2022/04/05 00:38:49;;;;;;;4.47;2.53;;;8.30;95.10;;;;;;5020349;28;20735;-70
2022/04/05 00:41:15;;;;;;;3.72;2.47;;;8.30;95.10;;;;;;5006267;28;20124;-70
2022/04/05 00:43:42;;;;;;;3.35;2.45;;;8.30;95.10;;;;;;5017023;28;20386;-70
2022/04/05 00:46:09;;;;;;;4.85;2.42;;;8.30;95.00;;;;;;5019378;28;20041;-70
2022/04/05 00:48:51;;;;;;;5.00;2.47;;;8.30;94.90;;;;;;5028309;28;20033;-69
2022/04/05 00:51:18;;;;;;;4.60;2.45;;;8.30;94.90;;;;;;5023841;28;20499;-70
2022/04/05 00:53:51;;;;;;;4.82;2.67;;;8.40;94.90;;;;;;5001221;28;20038;-70
2022/04/05 00:56:19;;;;;;;5.65;2.45;;;8.40;94.80;;;;;;5016557;28;20041;-70
2022/04/05 00:58:48;;;;;;;4.25;2.53;;;8.40;94.90;;;;;;5017765;28;20053;-70
2022/04/05 01:01:18;;;;;;;5.03;2.15;;;8.30;94.90;;;;;;5017308;28;20042;-70
2022/04/05 01:03:51;;;;;;;4.07;2.50;;;8.30;94.80;;;;;;5015900;28;20171;-69
2022/04/05 01:06:40;;;;;;;4.28;2.35;;;8.30;94.80;;;;;;5023288;28;20069;-70
2022/04/05 01:09:09;;;;;;;4.43;2.30;;;8.20;94.90;;;;;;5015525;28;20040;-69
2022/04/05 01:11:36;;;;;;;3.25;2.22;;;8.20;94.90;;;;;;5036290;28;20029;-69
2022/04/05 01:14:02;;;;;;;4.80;2.50;;;8.20;95.00;;;;;;5029907;28;20533;-70
2022/04/05 01:16:30;;;;;;;4.20;2.33;;;8.20;95.00;;;;;;5006886;28;20499;-70
2022/04/05 01:18:56;;;;;;;3.72;2.25;;;8.10;95.00;;;;;;5016838;28;20050;-69
2022/04/05 01:21:22;;;;;;;5.60;2.75;;;8.20;95.10;;;;;;5015751;28;20045;-70
2022/04/05 01:24:14;;;;;;;3.47;2.05;;;8.10;95.20;;;;;;5035978;28;20060;-69
2022/04/05 01:26:42;;;;;;;3.80;2.42;;;8.20;95.30;;;;;;5018868;28;20225;-69
2022/04/05 01:29:09;;;;;;;6.45;2.70;;;8.20;95.20;;;;;;5014176;28;20501;-70
2022/04/05 01:31:41;;;;;;;5.78;2.55;;;8.30;95.10;;;;;;5014769;28;20440;-70
2022/04/05 01:34:08;;;;;;;4.38;2.50;;;8.20;95.20;;;;;;5016423;28;20046;-68
2022/04/05 01:36:43;;;;;;;4.88;2.60;;;8.20;95.20;;;;;;5016756;28;20125;-69
2022/04/05 01:39:17;;;;;;;5.40;2.85;;;8.20;95.20;;;;;;5033562;28;20037;-69
2022/04/05 01:41:44;;;;;;;5.90;2.83;;;8.10;95.30;;;;;;5016602;28;20477;-70
2022/04/05 01:44:13;;;;;;;6.10;2.40;;;8.20;95.40;;;;;;5021374;28;20041;-69
2022/04/05 01:46:39;;;;;;;4.18;2.35;;;8.10;95.50;;;;;;5017981;28;20049;-70
2022/04/05 01:49:08;;;;;;;3.33;2.08;;;8.20;95.40;;;;;;5019108;28;20045;-69
2022/04/05 01:51:36;;;;;;;3.33;1.90;;;8.20;95.60;;;;;;5015997;28;20045;-70
2022/04/05 01:54:05;;;;;;;3.20;2.00;;;8.20;95.60;;;;;;5017366;28;20496;-70
2022/04/05 01:56:42;;;;;;;4.22;2.10;;;8.20;95.50;;;;;;4998640;28;20081;-70
2022/04/05 01:59:09;;;;;;;3.85;2.03;;;8.20;95.60;;;;;;5015032;28;20041;-70
2022/04/05 02:01:35;;;;;;;3.72;2.00;;;8.30;95.70;;;;;;5014239;28;20392;-69
2022/04/05 02:04:02;;;;;;;3.30;2.03;;;8.30;95.60;;;;;;5014654;28;20140;-70
2022/04/05 02:06:28;;;;;;;3.47;2.10;;;8.20;95.70;;;;;;5001027;28;20505;-70
2022/04/05 02:08:54;;;;;;;3.22;2.20;;;8.20;95.70;;;;;;5018074;28;20087;-70
2022/04/05 02:11:20;;;;;;;4.53;2.33;;;8.20;95.80;;;;;;5031740;28;20033;-70
2022/04/05 02:13:46;;;;;;;6.40;2.47;;;8.10;95.90;;;;;;5017432;28;20135;-70
2022/04/05 02:16:12;;;;;;;4.55;2.35;;;8.10;96.00;;;;;;5004349;28;20562;-69
2022/04/05 02:18:38;;;;;;;4.47;2.40;;;8.10;96.00;;;;;;5015975;28;20065;-70
2022/04/05 02:21:06;;;;;;;6.18;2.58;;;8.00;96.20;;;;;;5019235;28;20385;-69
2022/04/05 02:23:32;;;;;;;4.50;2.75;;;8.00;96.30;;;;;;5017721;28;20056;-70
2022/04/05 02:25:58;;;;;;;5.10;2.30;;;7.90;96.60;;;;;;5015335;28;20046;-69
2022/04/05 02:28:25;;;;;;;8.13;2.90;;;8.00;96.50;;;;;;5016919;28;20060;-68
2022/04/05 02:30:51;;;;;;;5.38;2.65;;;8.00;96.50;;;;;;5033397;28;20033;-70
2022/04/05 02:33:18;;;;;;;5.07;2.28;;;8.00;96.50;;;;;;4998926;28;20049;-69
2022/04/05 02:35:44;;;;;;;3.58;2.20;;;7.90;96.40;;;;;;5017370;28;20034;-70
2022/04/05 02:38:11;;;;;;;3.90;2.20;;;7.90;96.40;;;;;;5031344;28;20419;-69
2022/04/05 02:40:37;;;;;;;7.28;2.53;;;7.90;96.60;;;;;;5019947;28;20045;-69
2022/04/05 02:43:06;;;;;;;3.83;2.35;;;7.80;96.50;;;;;;5005661;28;20068;-69
2022/04/05 02:45:32;;;;;;;3.50;2.38;;;8.00;96.40;;;;;;5001659;28;20056;-69
2022/04/05 02:47:58;;;;;;;5.47;2.42;;;8.10;96.20;;;;;;5015430;28;20037;-70
2022/04/05 02:50:25;;;;;;;5.00;2.60;;;8.00;96.10;;;;;;5014608;28;20099;-69
2022/04/05 02:52:52;;;;;;;4.20;2.25;;;8.10;96.00;;;;;;5017411;28;20042;-69
2022/04/05 02:55:18;;;;;;;4.25;2.47;;;8.10;96.00;;;;;;5030950;28;20048;-69
2022/04/05 02:57:45;;;;;;;5.15;2.10;;;8.10;96.20;;;;;;5018276;28;20046;-69
2022/04/05 03:00:15;;;;;;;3.30;2.15;;;8.00;96.00;;;;;;5020593;28;20508;-70
2022/04/05 03:02:41;;;;;;;4.10;1.90;;;7.90;96.00;;;;;;5017016;28;20070;-69
2022/04/05 03:05:09;;;;;;;4.20;2.20;;;7.90;96.10;;;;;;5030854;28;20396;-70
2022/04/05 03:07:37;;;;;;;5.53;2.35;;;7.90;96.10;;;;;;5018759;28;20424;-69
2022/04/05 03:10:08;;;;;;;3.33;2.20;;;7.80;96.10;;;;;;5021369;28;20074;-69
2022/04/05 03:12:36;;;;;;;5.72;2.50;;;7.80;96.10;;;;;;4999041;28;20042;-70
2022/04/05 03:15:09;;;;;;;3.60;2.10;;;7.80;96.20;;;;;;5020671;28;20660;-70
2022/04/05 03:17:42;;;;;;;4.05;2.45;;;7.90;96.10;;;;;;4999935;28;20148;-69
2022/04/05 03:20:12;;;;;;;4.22;2.15;;;7.90;96.20;;;;;;5016494;28;20521;-69
2022/04/05 03:22:40;;;;;;;5.38;2.40;;;7.80;96.30;;;;;;5002966;28;20041;-69
2022/04/05 03:25:06;;;;;;;4.78;2.40;;;7.80;96.30;;;;;;5018623;28;20033;-70
2022/04/05 03:27:35;;;;;;;4.70;2.42;;;8.00;96.20;;;;;;5029612;28;20111;-69
2022/04/05 03:30:00;;;;;;;4.75;2.17;;;7.90;96.10;;;;;;5012860;28;20046;-70
2022/04/05 03:32:27;;;;;;;5.20;2.63;;;7.80;96.20;;;;;;5000759;28;20048;-70
2022/04/05 03:34:53;;;;;;;4.60;1.98;;;7.80;96.40;;;;;;5000203;28;20437;-69
2022/04/05 03:37:20;;;;;;;4.43;2.60;;;7.80;96.30;;;;;;5022029;28;20033;-69
2022/04/05 03:39:46;;;;;;;4.55;2.13;;;7.70;96.50;;;;;;5003357;28;20048;-69
2022/04/05 03:42:12;;;;;;;4.57;2.15;;;7.70;96.50;;;;;;5017308;28;20056;-69
2022/04/05 03:44:38;;;;;;;4.55;2.05;;;7.80;96.50;;;;;;5037773;28;20046;-70
2022/04/05 03:47:04;;;;;;;7.72;2.33;;;7.80;96.70;;;;;;5018144;28;20488;-70
2022/04/05 03:49:30;;;;;;;4.35;2.13;;;7.70;96.60;;;;;;5007216;28;20416;-70
2022/04/05 03:51:57;;;;;;;4.40;2.22;;;7.60;96.80;;;;;;5036812;28;20041;-70
2022/04/05 03:54:24;;;;;;;4.35;2.10;;;7.50;96.80;;;;;;5036308;28;20049;-70
2022/04/05 03:56:50;;;;;;;4.68;2.25;;;7.50;96.90;;;;;;5003300;28;20121;-70
2022/04/05 03:59:16;;;;;;;5.13;2.28;;;7.60;96.80;;;;;;5037010;28;20483;-70
2022/04/05 04:01:43;;;;;;;7.65;2.20;;;7.50;96.80;;;;;;5023018;28;20041;-70
2022/04/05 04:04:09;;;;;;;3.78;2.15;;;7.50;96.80;;;;;;5025315;28;20037;-70
2022/04/05 04:06:35;;;;;;;4.65;2.13;;;7.50;96.90;;;;;;5034329;28;20519;-70
2022/04/05 04:09:01;;;;;;;3.70;2.25;;;7.60;96.70;;;;;;5002116;28;20046;-70
2022/04/05 04:11:28;;;;;;;4.97;2.50;;;7.70;96.70;;;;;;5033171;28;20038;-69
2022/04/05 04:13:55;;;;;;;3.40;2.17;;;7.70;96.70;;;;;;5025243;28;20034;-69
2022/04/05 04:16:21;;;;;;;4.07;2.33;;;7.70;96.70;;;;;;5031506;28;20042;-70
2022/04/05 04:18:47;;;;;;;4.57;2.20;;;7.60;96.70;;;;;;5033352;28;20045;-69
2022/04/05 04:21:13;;;;;;;3.53;2.00;;;7.70;96.50;;;;;;5031061;28;20504;-69
2022/04/05 04:23:39;;;;;;;3.85;1.88;;;7.70;96.50;;;;;;5005048;28;20119;-69
2022/04/05 04:26:05;;;;;;;4.35;2.22;;;7.80;96.30;;;;;;5005239;28;20052;-70
2022/04/05 04:28:31;;;;;;;4.60;2.20;;;7.80;96.20;;;;;;5036065;28;20042;-70
2022/04/05 04:30:58;;;;;;;4.13;2.28;;;7.90;96.00;;;;;;5022916;28;20030;-69
2022/04/05 04:33:24;;;;;;;4.78;2.08;;;8.00;95.80;;;;;;5023197;28;20451;-71
2022/04/05 04:35:50;;;;;;;4.20;1.80;;;8.10;95.70;;;;;;5022503;28;20033;-70
2022/04/05 04:38:17;;;;;;;3.92;2.22;;;8.00;95.50;;;;;;5017406;28;20048;-70
2022/04/05 04:40:48;;;;;;;6.30;2.17;;;8.00;95.50;;;;;;5019450;28;20053;-69
2022/04/05 04:43:18;;;;;;;2.78;1.77;;;8.00;95.60;;;;;;5037596;28;20068;-69
2022/04/05 04:45:44;;;;;;;3.95;1.90;;;8.00;95.50;;;;;;5014919;28;20037;-70
2022/04/05 04:48:11;;;;;;;3.58;1.85;;;8.00;95.50;;;;;;5014968;28;20090;-70
2022/04/05 04:50:38;;;;;;;5.70;2.40;;;8.00;95.50;;;;;;5018631;28;20133;-69
2022/04/05 04:53:04;;;;;;;7.13;2.40;;;7.90;95.40;;;;;;5019494;28;20050;-70
2022/04/05 04:55:32;;;;;;;4.10;2.22;;;7.90;95.40;;;;;;5023750;28;20073;-72
2022/04/05 04:57:59;;;;;;;5.50;2.28;;;7.90;95.40;;;;;;5024008;28;20053;-70
2022/04/05 05:00:25;;;;;;;4.28;2.03;;;7.90;95.40;;;;;;5032593;28;20050;-69
2022/04/05 05:02:51;;;;;;;3.08;1.83;;;8.00;95.10;;;;;;5033903;28;20134;-70
2022/04/05 05:05:19;;;;;;;6.55;2.03;;;8.00;95.10;;;;;;5033527;28;20451;-69
2022/04/05 05:07:47;;;;;;;3.90;1.92;;;7.90;95.20;;;;;;5003191;28;20038;-69
2022/04/05 05:10:14;;;;;;;3.70;2.10;;;7.90;95.20;;;;;;5019536;28;20045;-70
2022/04/05 05:12:40;;;;;;;2.97;1.98;;;8.00;95.10;;;;;;5034745;28;20041;-71
2022/04/05 05:15:16;;;;;;;4.15;1.95;;;7.90;95.10;;;;;;5017036;28;20445;-70
2022/04/05 05:17:44;;;;;;;5.63;1.90;;;7.90;95.40;;;;;;5037796;28;20129;-71
2022/04/05 05:20:11;;;;;;;7.07;2.40;;;7.90;95.30;;;;;;5017850;28;20048;-70
2022/04/05 05:22:39;;;;;;;5.88;2.03;;;7.80;95.40;;;;;;5023365;28;20033;-71
2022/04/05 05:25:06;;;;;;;3.22;1.90;;;7.80;95.30;;;;;;5004627;28;20084;-70
2022/04/05 05:27:32;;;;;;;4.97;2.28;;;7.70;95.40;;;;;;5016023;28;20038;-70
2022/04/05 05:30:00;;;;;;;3.22;1.80;;;7.80;95.40;;;;;;5020915;28;20121;-70
2022/04/05 05:32:26;;;;;;;6.13;2.30;;;7.80;95.50;;;;;;5035086;28;20095;-70
2022/04/05 05:34:53;;;;;;;5.28;1.90;;;7.80;95.30;;;;;;5033393;28;20041;-69
2022/04/05 05:37:18;;;;;;;3.72;2.20;;;7.90;95.20;;;;;;5038014;28;20468;-70
2022/04/05 05:39:45;;;;;;;3.20;1.88;;;8.00;95.30;;;;;;5023966;28;20064;-70
2022/04/05 05:42:11;;;;;;;4.28;1.98;;;8.00;95.20;;;;;;5020639;28;20042;-71
2022/04/05 05:44:37;;;;;;;7.28;2.15;;;8.00;95.10;;;;;;5017012;28;20095;-71
2022/04/05 05:47:04;;;;;;;4.72;2.00;;;8.00;95.00;;;;;;5034403;28;20033;-71
2022/04/05 05:49:31;;;;;;;5.57;2.35;;;8.10;94.80;;;;;;5002060;28;20041;-70
2022/04/05 05:51:59;;;;;;;5.57;2.42;;;8.10;94.80;;;;;;5039315;28;20064;-70
2022/04/05 05:54:24;;;;;;;4.40;2.10;;;8.20;94.60;;;;;;5017929;28;20041;-70
2022/04/05 05:56:51;;;;;;;5.10;2.45;;;8.30;94.40;;;;;;5000510;28;20049;-72
2022/04/05 05:59:17;;;;;;;4.93;2.20;;;8.40;94.20;;;;;;5037143;28;20044;-71
2022/04/05 06:01:43;;;;;;;4.85;2.20;;;8.50;94.00;;;;;;5019016;28;20037;-70
2022/04/05 06:04:11;;;;;;;4.15;2.40;;;8.70;93.80;;;;;;4999307;28;20038;-69
2022/04/05 06:06:37;;;;;;;4.25;2.28;;;8.80;93.60;;;;;;5018537;28;20072;-68
2022/04/05 06:09:03;;;;;;;4.60;2.13;;;8.80;93.60;;;;;;5014848;28;20038;-69
2022/04/05 06:11:29;;;;;;;4.85;2.28;;;8.80;93.70;;;;;;5023318;28;20041;-71
2022/04/05 06:13:56;;;;;;;4.32;1.92;;;8.90;93.50;;;;;;5002632;28;20396;-70
2022/04/05 06:16:21;;;;;;;4.22;2.20;;;9.00;93.30;;;;;;5015982;28;20038;-70
2022/04/05 06:18:47;;;;;;;4.25;2.20;;;9.20;93.10;;;;;;5019434;28;20107;-70
2022/04/05 06:21:19;;;;;;;5.57;1.95;;;9.30;93.00;;;;;;5004257;28;20045;-70
2022/04/05 06:23:45;;;;;;;3.72;2.03;;;9.30;93.00;;;;;;5035004;28;20034;-70
2022/04/05 06:26:11;;;;;;;6.45;2.13;;;9.40;93.20;;;;;;5018833;28;20040;-70
2022/04/05 06:28:38;;;;;;;12.30;2.80;;;9.50;93.00;;;;;;4997089;28;20053;-69
2022/04/05 06:31:04;;;;;;;6.82;3.70;;;9.50;93.50;;;;;;4997760;28;20033;-70
2022/04/05 06:33:30;;;;;;;5.15;2.90;;;9.40;94.10;;;;;;5012881;28;20091;-70
2022/04/05 06:35:57;;;;;;;8.63;2.67;;;9.30;94.20;;;;;;5017695;28;20041;-69
2022/04/05 06:38:24;;;;;;;6.68;3.47;;;9.20;94.30;;;;;;5001505;28;20061;-69
2022/04/05 06:40:52;;;;;;;5.65;3.47;;;9.20;94.50;;;;;;5017206;28;20401;-70
2022/04/05 06:43:24;;;;;;;7.05;3.22;;;9.30;94.50;;;;;;5019782;28;20084;-68
2022/04/05 06:45:51;;;;;;;7.70;3.45;;;9.40;94.40;;;;;;5031173;28;20029;-70
2022/04/05 06:48:18;;;;;;;6.28;2.90;;;9.50;94.30;;;;;;5032057;28;20034;-70
2022/04/05 06:50:46;;;;;;;7.00;2.63;;;9.50;93.80;;;;;;5032426;28;20513;-70
2022/04/05 06:53:13;;;;;;;6.15;3.03;;;9.70;93.20;;;;;;5016668;28;20037;-69
2022/04/05 06:55:39;;;;;;;4.25;2.55;;;9.80;93.40;;;;;;5018864;28;20042;-69
2022/04/05 06:58:08;;;;;;;7.25;2.35;;;9.80;93.20;;;;;;5032248;28;20045;-69
2022/04/05 07:00:35;;;;;;;4.63;2.13;;;10.00;92.90;;;;;;5024154;28;20448;-69
2022/04/05 07:03:01;;;;;;;5.22;1.92;;;10.10;92.60;;;;;;5002226;28;20128;-70
2022/04/05 07:05:28;;;;;;;7.85;2.30;;;10.20;92.40;;;;;;5031624;28;20048;-70
2022/04/05 07:07:55;;;;;;;4.80;2.60;;;10.30;92.30;;;;;;5017102;28;20038;-70
2022/04/05 07:10:23;;;;;;;3.85;2.58;;;10.30;92.30;;;;;;5034519;28;20389;-70
2022/04/05 07:12:50;;;;;;;4.50;2.28;;;10.40;92.30;;;;;;5035011;28;20037;-70
2022/04/05 07:15:16;;;;;;;7.45;2.50;;;10.40;92.10;;;;;;5024661;28;20042;-70
2022/04/05 07:17:43;;;;;;;5.43;2.40;;;10.40;91.90;;;;;;5020010;28;20120;-70
2022/04/05 07:20:10;;;;;;;12.15;2.50;;;10.50;91.80;;;;;;5018779;28;20155;-70
2022/04/05 07:22:48;;;;;;;7.00;2.65;;;10.60;91.80;;;;;;5005968;28;20124;-70
2022/04/05 07:25:21;;;;;;;6.45;2.50;;;10.60;91.90;;;;;;5022945;28;20173;-69
2022/04/05 07:27:51;;;;;;;5.65;2.22;;;10.60;91.80;;;;;;5019127;28;20683;-69
2022/04/05 07:30:18;;;;;;;4.60;2.00;;;10.70;91.70;;;;;;5016002;28;20053;-69
2022/04/05 07:32:46;;;;;;;5.75;2.33;;;10.80;90.70;;;;;;5021005;28;20521;-68
2022/04/05 07:35:13;;;;;;;4.65;1.90;;;10.90;90.40;;;;;;5036773;28;20045;-70
2022/04/05 07:37:40;;;;;;;5.25;2.00;;;11.00;90.30;;;;;;5036392;28;20626;-70
2022/04/05 07:40:10;;;;;;;5.82;1.92;;;11.00;90.30;;;;;;5036939;28;20120;-68
2022/04/05 07:42:37;;;;;;;7.00;2.30;;;11.10;90.20;;;;;;5031770;28;20049;-69
2022/04/05 07:45:04;;;;;;;5.15;2.05;;;11.20;90.20;;;;;;5021049;28;20516;-70
2022/04/05 07:47:31;;;;;;;6.03;2.75;;;11.20;90.50;;;;;;5003601;28;20049;-71
2022/04/05 07:49:57;;;;;;;4.82;2.83;;;11.30;90.80;;;;;;5031615;28;20104;-70
2022/04/05 07:52:23;;;;;;;3.72;2.20;;;11.40;91.00;;;;;;5022417;28;20041;-70
2022/04/05 07:54:49;;;;;;;3.90;2.30;;;11.50;91.10;;;;;;5021628;28;20065;-71
2022/04/05 07:57:15;;;;;;;5.60;3.10;;;11.50;91.00;;;;;;5020752;28;20099;-71
2022/04/05 07:59:42;;;;;;;6.85;2.53;;;11.60;91.00;;;;;;5037660;28;20404;-70
2022/04/05 08:02:10;;;;;;;6.95;2.85;;;11.70;91.00;;;;;;5040965;28;20045;-70
2022/04/05 08:04:35;;;;;;;4.78;2.72;;;11.80;90.90;;;;;;5013820;28;20049;-70
2022/04/05 08:07:02;;;;;;;7.68;2.78;;;11.80;90.90;;;;;;5031572;28;20132;-72
2022/04/05 08:09:28;;;;;;;3.78;2.20;;;11.80;90.90;;;;;;4989486;28;20050;-71
2022/04/05 08:11:54;;;;;;;3.58;1.92;;;11.90;90.50;;;;;;5022101;28;20072;-70
2022/04/05 08:14:21;;;;;;;4.45;2.25;;;12.00;90.50;;;;;;5022123;28;20437;-70
2022/04/05 08:16:47;;;;;;;4.68;2.03;;;12.00;90.50;;;;;;5019435;28;20211;-70
2022/04/05 08:19:13;;;;;;;4.63;2.10;;;12.20;90.30;;;;;;4989391;28;20079;-71
2022/04/05 08:21:39;;;;;;;5.85;2.20;;;12.30;90.10;;;;;;5020094;28;20033;-72
2022/04/05 08:24:06;;;;;;;4.97;2.42;;;12.50;89.20;;;;;;4992641;28;20056;-70
2022/04/05 08:26:32;;;;;;;3.63;1.98;;;12.60;88.70;;;;;;4981729;28;20049;-70
2022/04/05 08:28:59;;;;;;;4.68;1.80;;;12.70;87.10;;;;;;5022075;28;20034;-70
2022/04/05 08:31:26;;;;;;;3.15;1.98;;;12.70;86.90;;;;;;5004625;28;20046;-70
2022/04/05 08:33:53;;;;;;;4.93;2.15;;;13.00;86.40;;;;;;5020382;28;20044;-70
2022/04/05 08:36:19;;;;;;;5.55;1.85;;;14.80;84.60;;;;;;5006179;28;20034;-69
2022/04/05 08:38:45;;;;;;;5.63;2.10;;;16.60;81.60;;;;;;4988444;28;20083;-70
2022/04/05 08:41:13;;;;;;;4.32;1.70;;;17.80;78.40;;;;;;4996007;28;20065;-70
2022/04/05 08:43:42;;;;;;;2.72;1.80;;;18.60;76.00;;;;;;5023671;28;20524;-70
2022/04/05 08:46:10;;;;;;;2.75;1.58;;;19.20;73.70;;;;;;5011997;28;20050;-70
2022/04/05 08:48:38;;;;;;;2.50;1.60;;;19.20;72.20;;;;;;5031566;28;20737;-69
2022/04/05 08:51:06;;;;;;;2.50;1.60;;;19.30;71.00;;;;;;4994594;28;20034;-71
2022/04/05 08:53:33;;;;;;;2.35;1.65;;;19.00;71.30;;;;;;5023235;28;20037;-72
2022/04/05 08:56:02;;;;;;;2.00;1.80;;;18.50;71.10;;;;;;5025484;28;20049;-70
2022/04/05 08:58:28;;;;;;;2.15;1.85;;;18.80;71.00;;;;;;5009893;28;20057;-70
2022/04/05 09:00:54;;;;;;;3.30;2.10;;;19.10;70.60;;;;;;5013483;28;20032;-71
2022/04/05 09:03:21;;;;;;;4.80;2.15;;;20.00;70.50;;;;;;5000238;28;20136;-70
2022/04/05 09:05:47;;;;;;;3.47;2.10;;;20.40;70.00;;;;;;5022372;28;20111;-69
2022/04/05 09:08:23;;;;;;;3.33;2.00;;;20.20;69.70;;;;;;5015431;28;20053;-71
2022/04/05 09:11:20;;;;;;;9.30;1.80;;;19.30;68.70;;;;;;5012926;28;20046;-70
2022/04/05 09:13:58;;;;;;;2.58;1.55;;;19.00;68.80;;;;;;5005570;28;20052;-70
2022/04/05 09:16:32;;;;;;;5.45;1.70;;;19.30;68.00;;;;;;5005005;28;20033;-70
2022/04/05 09:19:00;;;;;;;3.03;1.60;;;20.00;67.30;;;;;;5006742;28;20046;-70
2022/04/05 09:21:46;;;;;;;2.42;1.45;;;20.10;67.40;;;;;;5004562;28;20036;-69
2022/04/05 09:24:13;;;;;;;4.03;1.60;;;20.20;65.90;;;;;;4989975;28;20099;-70
2022/04/05 09:26:44;;;;;;;2.45;1.48;;;20.60;66.40;;;;;;5021816;28;20041;-70
2022/04/05 09:29:10;;;;;;;4.03;1.60;;;20.90;65.40;;;;;;5016937;28;21318;-70
2022/04/05 09:31:48;;;;;;;3.40;1.83;;;20.80;65.00;;;;;;5020665;28;20476;-72
2022/04/05 09:34:17;;;;;;;4.13;1.63;;;21.50;64.60;;;;;;4985623;28;20063;-70
2022/04/05 09:36:48;;;;;;;2.60;1.80;;;21.60;64.50;;;;;;5002791;28;20033;-71
2022/04/05 09:39:25;;;;;;;5.43;1.90;;;21.70;63.30;;;;;;5017273;28;20049;-69
2022/04/05 09:42:10;;;;;;;4.63;2.17;;;22.00;63.20;;;;;;5010817;28;20041;-70
2022/04/05 09:44:42;;;;;;;2.65;1.88;;;22.30;62.50;;;;;;5030418;28;20396;-70
2022/04/05 09:47:17;;;;;;;7.07;2.20;;;21.10;63.00;;;;;;5019375;28;20080;-71
2022/04/05 09:49:48;;;;;;;5.50;3.42;;;19.90;63.80;;;;;;5003490;28;20053;-70
2022/04/05 09:52:32;;;;;;;8.95;3.47;;;19.60;65.60;;;;;;5000426;28;20048;-70
2022/04/05 09:55:16;;;;;;;10.93;3.88;;;20.20;66.30;;;;;;5015955;28;20084;-69
2022/04/05 09:57:43;;;;;;;7.28;3.78;;;20.00;67.20;;;;;;5008065;28;20042;-70
2022/04/05 10:00:13;;;;;;;6.55;4.10;;;19.60;67.50;;;;;;4987823;28;20046;-71
2022/04/05 10:03:11;;;;;;;5.05;3.30;;;20.60;66.70;;;;;;5002566;28;20037;-71
2022/04/05 10:05:39;;;;;;;4.95;2.50;;;21.20;65.20;;;;;;4979622;28;20504;-70
2022/04/05 10:08:05;;;;;;;5.28;3.00;;;21.30;63.90;;;;;;5001474;28;20050;-69
2022/04/05 10:10:32;;;;;;;4.50;2.90;;;21.20;63.40;;;;;;4983969;28;20072;-70
2022/04/05 10:12:58;;;;;;;4.05;2.65;;;20.60;63.80;;;;;;4984440;28;20045;-70
2022/04/05 10:15:25;;;;;;;5.03;2.30;;;20.00;63.60;;;;;;4980382;28;20237;-70
2022/04/05 10:17:54;;;;;;;6.68;2.63;;;19.50;63.50;;;;;;4983531;28;20076;-70
2022/04/05 10:20:22;;;;;;;4.25;2.50;;;19.10;64.20;;;;;;4981315;28;20049;-71
2022/04/05 10:22:54;;;;;;;4.00;2.50;;;19.00;65.00;;;;;;4980376;28;20046;-69
2022/04/05 10:25:21;;;;;;;5.07;2.33;;;18.70;64.90;;;;;;4979836;28;20042;-70
2022/04/05 10:27:50;;;;;;;5.47;2.75;;;18.70;65.10;;;;;;5015688;28;20501;-71
2022/04/05 10:30:25;;;;;;;7.13;2.55;;;18.40;66.60;;;;;;4983177;28;20046;-70
2022/04/05 10:33:02;;;;;;;5.05;2.58;;;18.30;67.10;;;;;;5013348;28;20050;-70
2022/04/05 10:35:31;;;;;;;4.47;2.67;;;19.20;67.50;;;;;;5011494;28;20057;-70
2022/04/05 10:38:20;;;;;;;5.15;2.70;;;19.30;65.30;;;;;;5013185;28;20145;-70
2022/04/05 10:41:20;;;;;;;4.22;2.55;;;19.40;65.70;;;;;;5004322;28;20126;-71
2022/04/05 10:44:08;;;;;;;4.20;2.25;;;19.80;66.00;;;;;;5012524;28;20054;-69
2022/04/05 10:46:53;;;;;;;5.35;2.60;;;20.30;64.80;;;;;;4973739;28;20048;-72
2022/04/05 10:49:42;;;;;;;3.10;2.35;;;19.80;65.50;;;;;;4988614;28;20044;-71
2022/04/05 10:52:15;;;;;;;5.65;2.30;;;19.90;65.40;;;;;;4969703;28;20065;-72
2022/04/05 10:54:49;;;;;;;6.63;2.53;;;20.10;65.00;;;;;;4976735;28;20373;-71
2022/04/05 10:57:20;;;;;;;5.10;2.83;;;20.70;66.30;;;;;;4990701;28;20050;-71
2022/04/05 10:59:49;;;;;;;6.70;2.53;;;21.40;65.70;;;;;;4988505;28;20129;-70
2022/04/05 11:02:36;;;;;;;5.72;3.00;;;21.80;65.80;;;;;;4987968;28;20141;-71
2022/04/05 11:05:24;;;;;;;5.40;3.00;;;20.50;67.00;;;;;;4988963;28;20079;-71
2022/04/05 11:07:59;;;;;;;4.03;2.60;;;20.80;68.00;;;;;;4994365;28;20042;-71
2022/04/05 11:10:37;;;;;;;5.88;2.95;;;20.60;68.00;;;;;;4990159;28;20080;-71
2022/04/05 11:13:06;;;;;;;6.40;2.33;;;20.20;68.60;;;;;;4990212;28;20081;-71
2022/04/05 11:15:54;;;;;;;4.82;2.97;;;20.80;66.80;;;;;;4989824;28;20049;-71
2022/04/05 11:18:22;;;;;;;4.90;2.55;;;21.80;67.30;;;;;;4993440;28;20041;-71
2022/04/05 11:20:51;;;;;;;6.78;2.80;;;22.00;64.90;;;;;;5004804;28;20045;-71
2022/04/05 11:23:19;;;;;;;5.95;2.83;;;21.80;65.40;;;;;;5002309;28;20050;-71
2022/04/05 11:25:47;;;;;;;3.58;2.13;;;21.80;65.10;;;;;;4992076;28;20034;-71
2022/04/05 11:28:21;;;;;;;4.60;2.25;;;22.00;64.80;;;;;;4992255;28;20041;-71
2022/04/05 11:31:04;;;;;;;3.72;2.60;;;22.20;62.60;;;;;;5005629;28;20042;-71
2022/04/05 11:33:34;;;;;;;4.65;2.10;;;22.00;61.40;;;;;;4971304;28;20066;-70
2022/04/05 11:36:09;;;;;;;6.80;2.83;;;22.10;61.50;;;;;;4987127;28;20058;-71
2022/04/05 11:38:45;;;;;;;4.50;2.33;;;22.60;61.60;;;;;;4997616;28;20041;-71
2022/04/05 11:41:22;;;;;;;4.90;2.40;;;22.00;61.80;;;;;;5004433;28;20045;-72
2022/04/05 11:43:54;;;;;;;3.55;2.00;;;21.60;62.90;;;;;;5018791;28;20042;-71
2022/04/05 11:46:30;;;;;;;;;;;20.40;64.20;;;;;;5004256;28;20038;-72
2022/04/05 11:49:02;;;;;;;3.70;2.22;;;20.70;64.60;;;;;;5003385;28;19917;-72
2022/04/05 11:51:34;;;;;;;5.45;2.42;;;21.10;63.80;;;;;;5019649;28;20044;-71
2022/04/05 11:54:18;;;;;;;4.25;2.17;;;22.00;63.90;;;;;;5024913;28;20145;-72
2022/04/05 11:56:46;;;;;;;4.85;2.10;;;23.20;62.60;;;;;;4983009;28;20109;-71
2022/04/05 11:59:15;;;;;;;4.25;2.15;;;23.70;62.30;;;;;;5027801;28;20393;-72
2022/04/05 12:01:43;;;;;;;4.13;2.65;;;23.60;61.90;;;;;;5035139;28;20455;-72
2022/04/05 12:04:11;;;;;;;6.20;3.25;;;23.60;62.30;;;;;;5032818;28;20029;-71
2022/04/05 12:06:43;;;;;;;7.18;3.28;;;23.80;63.10;;;;;;5034699;28;20139;-71
2022/04/05 12:09:17;;;;;;;5.35;2.53;;;24.10;62.90;;;;;;5036687;28;20033;-71
2022/04/05 12:11:46;;;;;;;3.88;1.98;;;23.70;61.70;;;;;;5020597;28;20041;-71
2022/04/05 12:14:14;;;;;;;6.00;2.10;;;24.10;61.70;;;;;;5030763;28;20095;-72
2022/04/05 12:16:46;;;;;;;3.13;2.00;;;23.50;62.40;;;;;;5035573;28;20468;-72
2022/04/05 12:19:23;;;;;;;3.63;2.10;;;21.80;63.70;;;;;;5036225;28;20053;-71
2022/04/05 12:22:02;;;;;;;4.20;1.90;;;22.00;64.10;;;;;;5019170;28;20049;-70
2022/04/05 12:24:30;;;;;;;4.20;2.20;;;22.00;64.50;;;;;;4995941;28;20091;-71
2022/04/05 12:26:57;;;;;;;5.63;1.90;;;22.60;64.50;;;;;;5017710;28;20572;-72
2022/04/05 12:29:28;;;;;;;5.30;2.15;;;22.30;65.00;;;;;;5036183;28;20049;-70
2022/04/05 12:32:03;;;;;;;5.22;2.40;;;22.10;64.10;;;;;;5019660;28;20045;-71
2022/04/05 12:34:29;;;;;;;3.38;2.05;;;22.10;63.60;;;;;;5034179;28;20034;-71
2022/04/05 12:37:02;;;;;;;3.35;2.47;;;21.60;64.30;;;;;;5033543;28;20061;-71
2022/04/05 12:39:32;;;;;;;5.43;2.70;;;21.30;64.60;;;;;;5002315;28;20038;-72
2022/04/05 12:42:03;;;;;;;6.43;2.05;;;21.90;65.10;;;;;;4915262;28;1982204;-71
2022/04/05 12:44:44;;;;;;;5.03;2.67;;;21.90;64.00;;;;;;5032622;28;20501;-71
2022/04/05 12:47:15;;;;;;;4.97;2.25;;;22.50;64.70;;;;;;5018134;28;20416;-72
2022/04/05 12:49:50;;;;;;;4.28;2.10;;;22.90;63.70;;;;;;4988534;28;20042;-71
2022/04/05 12:52:25;;;;;;;4.00;2.45;;;23.30;64.00;;;;;;5034258;28;20041;-71
2022/04/05 12:55:05;;;;;;;3.92;2.35;;;21.20;64.50;;;;;;4999858;28;20046;-71
2022/04/05 12:57:32;;;;;;;7.93;2.30;;;21.90;65.50;;;;;;5019881;28;20053;-71
2022/04/05 13:00:19;;;;;;;4.55;2.80;;;22.80;65.80;;;;;;5004573;28;20444;-70
2022/04/05 13:03:11;;;;;;;4.20;2.70;;;23.10;65.30;;;;;;5031760;28;20045;-72
2022/04/05 13:08:41;;;;;;;9.02;2.95;;;21.90;66.30;;;;;;5021434;28;19920;-72